KDUJ/DUJ METAR and TAF weather

Enter ICAO airport designator
Station Type Date Time Source
KDUJ METAR 2024/07/15 20:07 UTC NOAA

KDUJ 152007Z AUTO 18005KT 10SM FEW110 23/20 A2988 RMK AO2 LTG DSNT NE AND E T02280200 $


Station Type Date Time Source
KDUJ Decoded METAR 2024/07/15 20:07 UTC NOAA

DU BOIS-JEFFERSON COUNTY, PA, United States (KDUJ) 41-11N 078-53W
Jul 15, 2024 - 04:07 PM EDT / 2024.07.15 2007 UTC
Wind: from the S (180 degrees) at 6 MPH (5 KT):0
Visibility: 10 mile(s):0
Sky conditions: mostly clear
Weather: Lightning observed
Temperature: 73.0 F (22.8 C)
Dew Point: 68.0 F (20.0 C)
Relative Humidity: 84%
Pressure (altimeter): 29.88 in. Hg (1011 hPa)
ob: KDUJ 152007Z AUTO 18005KT 10SM FEW110 23/20 A2988 RMK AO2 LTG DSNT NE AND E T02280200
cycle: 20

Station Type Date Time Source
KDUJ TAF 2024/07/15 19:48 UTC NOAA